createdAt,value
2018-04-23T00:05:13.133Z,11.95
2018-04-23T00:11:13.111Z,13.17
2018-04-23T00:17:13.093Z,11.4
2018-04-23T00:23:13.079Z,11.72
2018-04-23T00:29:13.105Z,14.12
2018-04-23T00:35:13.133Z,11.03
2018-04-23T00:41:13.122Z,11.61
2018-04-23T00:47:13.171Z,12.21
2018-04-23T00:53:13.119Z,12.52
2018-04-23T00:59:13.111Z,13.76
2018-04-23T01:05:13.163Z,12.59
2018-04-23T01:11:13.153Z,12.12
2018-04-23T01:17:13.162Z,13.78
2018-04-23T01:23:13.131Z,13.22
2018-04-23T01:29:13.173Z,14.43
2018-04-23T01:35:13.131Z,13.57
2018-04-23T01:41:13.160Z,13.61
2018-04-23T01:47:14.008Z,13.27
2018-04-23T01:53:13.140Z,12.44
2018-04-23T01:59:13.200Z,13.56
2018-04-23T02:05:13.239Z,12.73
2018-04-23T02:11:13.165Z,13.66
2018-04-23T02:17:13.158Z,12.29
2018-04-23T02:23:13.142Z,12.13
2018-04-23T02:29:13.183Z,13.44
2018-04-23T02:35:13.202Z,13.65
2018-04-23T02:41:13.179Z,12.42
2018-04-23T02:53:13.212Z,13.46
2018-04-23T02:59:13.186Z,12.74
2018-04-23T03:05:13.198Z,12.9
2018-04-23T03:11:13.253Z,12.02
2018-04-23T03:17:13.234Z,12.23
2018-04-23T03:23:13.285Z,12.49
2018-04-23T03:29:13.246Z,12.88
2018-04-23T03:35:13.224Z,12.43
2018-04-23T03:41:13.199Z,12.62
2018-04-23T03:47:13.220Z,13.36
2018-04-23T03:53:13.249Z,12
2018-04-23T03:59:13.278Z,11.95
2018-04-23T04:05:13.189Z,14.84
2018-04-23T04:11:13.198Z,12.78
2018-04-23T04:17:13.207Z,12.85
2018-04-23T04:23:15.652Z,13.08
2018-04-23T04:29:13.219Z,13.02
2018-04-23T04:35:13.221Z,13.13
2018-04-23T04:41:13.241Z,13.31
2018-04-23T04:47:13.284Z,13.54
2018-04-23T04:53:13.266Z,19.49
2018-04-23T05:05:13.227Z,28.08
2018-04-23T05:11:13.257Z,19.32
2018-04-23T05:17:13.250Z,13.7
2018-04-23T05:23:13.258Z,13.57
2018-04-23T05:29:13.269Z,20.89
2018-04-23T05:41:13.244Z,19.09
2018-04-23T05:59:13.282Z,16.08
2018-04-23T06:05:13.314Z,16.95
2018-04-23T06:11:13.294Z,17.88
2018-04-23T06:17:13.294Z,16.84
2018-04-23T06:23:13.290Z,17.76
2018-04-23T06:29:13.377Z,18
2018-04-23T06:35:13.279Z,16.32
2018-04-23T06:41:13.268Z,17.98
2018-04-23T06:47:13.274Z,18.77
2018-04-23T06:53:13.289Z,21.6
2018-04-23T06:59:13.329Z,20.17
2018-04-23T07:05:13.396Z,21.58
2018-04-23T07:11:13.324Z,22.47
2018-04-23T07:17:13.311Z,27.59
2018-04-23T07:23:13.293Z,19.24
2018-04-23T07:29:13.322Z,20.47
2018-04-23T07:35:13.334Z,21.28
2018-04-23T07:41:13.308Z,24.46
2018-04-23T07:47:13.332Z,21.13
2018-04-23T07:53:13.327Z,24.32
2018-04-23T07:59:13.312Z,16.24
2018-04-23T08:05:13.345Z,29.59
2018-04-23T08:11:13.377Z,22.38
2018-04-23T08:17:13.368Z,28.12
2018-04-23T08:23:13.363Z,24.4
2018-04-23T08:29:13.354Z,22.27
2018-04-23T08:35:13.362Z,17.97
2018-04-23T08:41:13.349Z,16.78
2018-04-23T08:47:13.414Z,16.1
2018-04-23T08:53:13.390Z,13.81
2018-04-23T08:59:13.379Z,17.66
2018-04-23T09:05:13.348Z,25.25
2018-04-23T09:17:13.400Z,18.87
2018-04-23T09:23:13.384Z,18.37
2018-04-23T09:29:13.375Z,21.27
2018-04-23T09:35:13.393Z,17.03
2018-04-23T09:41:13.416Z,16.02
2018-04-23T09:47:13.435Z,15.51
2018-04-23T09:53:13.387Z,21.08
2018-04-23T09:59:13.421Z,16.85
2018-04-23T10:05:13.421Z,19.37
2018-04-23T10:11:13.386Z,18.58
2018-04-23T10:29:13.416Z,17.61
2018-04-23T10:35:13.403Z,19.89
2018-04-23T10:41:13.402Z,19.66
2018-04-23T10:45:32.842Z,17.28
2018-04-23T10:51:23.777Z,16.81
2018-04-23T10:57:14.673Z,20.04
2018-04-23T11:03:05.588Z,17.71
2018-04-23T11:08:56.557Z,15.72
2018-04-23T11:14:47.421Z,19.05
2018-04-23T11:20:38.378Z,14
2018-04-23T11:26:29.260Z,17.32
2018-04-23T11:32:20.176Z,15.47
2018-04-23T11:38:11.120Z,16.36
2018-04-23T11:44:02.028Z,23.74
2018-04-23T11:49:52.964Z,22.89
2018-04-23T11:55:43.891Z,21.11
2018-04-23T12:01:34.738Z,19.42
2018-04-23T12:07:25.745Z,17.74
2018-04-23T12:13:16.597Z,23.95
2018-04-23T12:19:07.545Z,22.38
2018-04-23T12:24:58.435Z,17.34
2018-04-23T12:30:49.316Z,24.53
2018-04-23T12:36:40.237Z,28.67
2018-04-23T12:42:31.156Z,24.41
2018-04-23T12:48:22.050Z,24.48
2018-04-23T12:54:12.958Z,13.34
2018-04-23T13:00:03.870Z,14.07
2018-04-23T13:05:54.786Z,13.98
2018-04-23T13:11:45.697Z,10.21
2018-04-23T13:17:36.602Z,19.06
2018-04-23T13:23:27.520Z,19.37
2018-04-23T13:29:18.453Z,11.12
2018-04-23T13:35:09.363Z,15.24
2018-04-23T13:41:00.268Z,10.71
2018-04-23T13:46:51.196Z,11.12
2018-04-23T13:52:42.071Z,12.07
2018-04-23T13:58:33.034Z,11.07
2018-04-23T14:04:23.907Z,8.5
2018-04-23T14:10:14.809Z,6.81
2018-04-23T14:16:05.731Z,9.53
2018-04-23T14:21:56.646Z,7.99
2018-04-23T14:27:47.628Z,7.74
2018-04-23T14:33:38.454Z,5.97
2018-04-23T14:39:29.362Z,7.07
2018-04-23T14:45:20.309Z,8.9
2018-04-23T14:51:11.282Z,6.05
2018-04-23T14:57:02.111Z,10.43
2018-04-23T15:02:53.078Z,4.79
2018-04-23T15:08:43.953Z,5.13
2018-04-23T15:14:34.854Z,7.01
2018-04-23T15:20:25.806Z,9.01
2018-04-23T15:26:16.760Z,8.63
2018-04-23T15:32:07.596Z,9.8
2018-04-23T15:37:58.633Z,10.89
2018-04-23T15:43:49.410Z,7.03
2018-04-23T15:49:40.355Z,7.97
2018-04-23T15:55:31.255Z,6.05
2018-04-23T16:01:22.189Z,8
2018-04-23T16:07:13.083Z,9.35
2018-04-23T16:13:04.023Z,8.47
2018-04-23T16:18:54.934Z,7.61
2018-04-23T16:24:45.856Z,6.91
2018-04-23T16:30:36.794Z,8.11
2018-04-23T16:36:27.665Z,7.85
2018-04-23T16:42:18.585Z,9.59
2018-04-23T16:48:09.488Z,8.85
2018-04-23T16:54:00.420Z,9.64
2018-04-23T16:59:51.360Z,11.29
2018-04-23T17:05:42.220Z,7.66
2018-04-23T17:11:33.136Z,11.06
2018-04-23T17:17:24.061Z,12.39
2018-04-23T17:23:14.967Z,9.11
2018-04-23T17:29:05.940Z,8.96
2018-04-23T17:34:56.830Z,15.84
2018-04-23T17:40:47.711Z,8.43
2018-04-23T17:46:38.619Z,8.9
2018-04-23T17:52:29.526Z,14.93
2018-04-23T17:57:48.153Z,6.18
2018-04-23T18:03:48.201Z,9.61
2018-04-23T18:15:48.179Z,9.35
2018-04-23T18:21:48.222Z,9.97
2018-04-23T18:27:48.193Z,9.29
2018-04-23T18:33:48.204Z,9.87
2018-04-23T18:39:48.307Z,11.17
2018-04-23T18:45:48.190Z,8.3
2018-04-23T18:51:48.222Z,10.27
2018-04-23T18:57:48.192Z,10.77
2018-04-23T19:03:48.211Z,9.67
2018-04-23T19:09:48.212Z,8.58
2018-04-23T19:15:48.268Z,10.16
2018-04-23T19:21:48.229Z,8.29
2018-04-23T19:33:48.213Z,9.16
2018-04-23T19:51:48.257Z,9.83
2018-04-23T19:57:48.240Z,8.55
2018-04-23T20:03:48.233Z,11.12
2018-04-23T20:09:48.243Z,12.32
2018-04-23T20:15:48.317Z,11.98
2018-04-23T20:21:48.243Z,13.86
2018-04-23T20:33:48.241Z,11.53
2018-04-23T20:39:48.266Z,10.81
2018-04-23T20:45:48.254Z,8.76
2018-04-23T20:51:48.275Z,10.08
2018-04-23T20:57:48.289Z,11.1
2018-04-23T21:03:48.282Z,9.03
2018-04-23T21:09:48.302Z,11.31
2018-04-23T21:15:48.345Z,10.22
2018-04-23T21:21:48.287Z,13.49
2018-04-23T21:27:48.373Z,11.21
2018-04-23T21:39:48.300Z,9.54
2018-04-23T21:45:48.339Z,9.35
2018-04-23T21:57:48.295Z,14.26
2018-04-23T22:03:48.301Z,9.51
2018-04-23T22:09:48.315Z,13.01
2018-04-23T22:15:48.377Z,10.73
2018-04-23T22:21:48.353Z,9.84
2018-04-23T22:27:48.314Z,11.24
2018-04-23T22:33:48.315Z,10.35
2018-04-23T22:39:48.317Z,11.39
2018-04-23T22:45:48.319Z,12.19
2018-04-23T22:51:48.355Z,10.25
2018-04-23T22:57:48.328Z,12.41
2018-04-23T23:03:48.347Z,12.13
2018-04-23T23:09:48.349Z,12.67
2018-04-23T23:15:48.363Z,11.45
2018-04-23T23:21:48.343Z,11.41
2018-04-23T23:27:48.354Z,12.55
2018-04-23T23:33:48.353Z,10.77
2018-04-23T23:39:48.383Z,10.09
2018-04-23T23:45:48.350Z,13.72
2018-04-23T23:51:48.370Z,14.25
2018-04-23T23:57:48.365Z,9.9
